sensor_id;sensor_type;location;lat;lon;timestamp;temperature;humidity
3699;DHT22;1865;50.918;7.092;2023-06-10T00:01:57;25.30;38.90
3699;DHT22;1865;50.918;7.092;2023-06-10T00:04:25;25.20;38.90
3699;DHT22;1865;50.918;7.092;2023-06-10T00:06:51;25.20;39.30
3699;DHT22;1865;50.918;7.092;2023-06-10T00:09:17;25.20;39.60
3699;DHT22;1865;50.918;7.092;2023-06-10T00:11:43;25.20;40.30
3699;DHT22;1865;50.918;7.092;2023-06-10T00:14:09;25.20;41.00
3699;DHT22;1865;50.918;7.092;2023-06-10T00:16:35;25.20;41.20
3699;DHT22;1865;50.918;7.092;2023-06-10T00:19:02;25.10;41.20
3699;DHT22;1865;50.918;7.092;2023-06-10T00:21:32;25.10;41.60
3699;DHT22;1865;50.918;7.092;2023-06-10T00:24:06;25.00;41.70
3699;DHT22;1865;50.918;7.092;2023-06-10T00:26:33;24.90;43.40
3699;DHT22;1865;50.918;7.092;2023-06-10T00:28:59;24.80;41.70
3699;DHT22;1865;50.918;7.092;2023-06-10T00:31:25;24.70;42.60
3699;DHT22;1865;50.918;7.092;2023-06-10T00:33:53;24.60;42.00
3699;DHT22;1865;50.918;7.092;2023-06-10T00:36:19;24.50;43.30
3699;DHT22;1865;50.918;7.092;2023-06-10T00:38:45;24.40;43.80
3699;DHT22;1865;50.918;7.092;2023-06-10T00:41:10;24.30;44.60
3699;DHT22;1865;50.918;7.092;2023-06-10T00:43:36;24.20;45.00
3699;DHT22;1865;50.918;7.092;2023-06-10T00:46:02;24.10;45.50
3699;DHT22;1865;50.918;7.092;2023-06-10T00:48:27;24.00;45.60
3699;DHT22;1865;50.918;7.092;2023-06-10T00:50:53;23.80;46.40
3699;DHT22;1865;50.918;7.092;2023-06-10T00:53:21;23.70;45.60
3699;DHT22;1865;50.918;7.092;2023-06-10T00:55:47;23.60;45.60
3699;DHT22;1865;50.918;7.092;2023-06-10T00:58:12;23.40;45.60
3699;DHT22;1865;50.918;7.092;2023-06-10T01:00:38;23.30;46.30
3699;DHT22;1865;50.918;7.092;2023-06-10T01:03:04;23.20;46.60
3699;DHT22;1865;50.918;7.092;2023-06-10T01:05:36;23.10;47.20
3699;DHT22;1865;50.918;7.092;2023-06-10T01:11:04;23.10;48.50
3699;DHT22;1865;50.918;7.092;2023-06-10T01:13:33;23.00;49.20
3699;DHT22;1865;50.918;7.092;2023-06-10T01:16:01;22.90;49.40
3699;DHT22;1865;50.918;7.092;2023-06-10T01:18:30;22.90;49.30
3699;DHT22;1865;50.918;7.092;2023-06-10T01:20:56;22.80;49.60
3699;DHT22;1865;50.918;7.092;2023-06-10T01:23:22;22.80;49.60
3699;DHT22;1865;50.918;7.092;2023-06-10T01:25:53;22.60;50.00
3699;DHT22;1865;50.918;7.092;2023-06-10T01:31:21;22.50;50.10
3699;DHT22;1865;50.918;7.092;2023-06-10T01:33:51;22.40;50.40
3699;DHT22;1865;50.918;7.092;2023-06-10T01:36:18;22.40;50.80
3699;DHT22;1865;50.918;7.092;2023-06-10T01:38:46;22.40;50.70
3699;DHT22;1865;50.918;7.092;2023-06-10T01:41:13;22.40;51.10
3699;DHT22;1865;50.918;7.092;2023-06-10T01:43:40;22.30;51.30
3699;DHT22;1865;50.918;7.092;2023-06-10T01:46:06;22.20;51.40
3699;DHT22;1865;50.918;7.092;2023-06-10T01:48:32;22.20;51.50
3699;DHT22;1865;50.918;7.092;2023-06-10T01:50:58;22.20;51.60
3699;DHT22;1865;50.918;7.092;2023-06-10T01:53:24;22.10;51.90
3699;DHT22;1865;50.918;7.092;2023-06-10T01:55:49;22.00;51.80
3699;DHT22;1865;50.918;7.092;2023-06-10T01:58:16;22.00;52.50
3699;DHT22;1865;50.918;7.092;2023-06-10T02:00:42;21.90;51.90
3699;DHT22;1865;50.918;7.092;2023-06-10T02:03:07;21.90;52.70
3699;DHT22;1865;50.918;7.092;2023-06-10T02:05:33;21.90;52.20
3699;DHT22;1865;50.918;7.092;2023-06-10T02:07:58;21.80;52.20
3699;DHT22;1865;50.918;7.092;2023-06-10T02:10:24;21.70;52.20
3699;DHT22;1865;50.918;7.092;2023-06-10T02:12:50;21.70;52.40
3699;DHT22;1865;50.918;7.092;2023-06-10T02:15:15;21.70;52.20
3699;DHT22;1865;50.918;7.092;2023-06-10T02:17:41;21.60;52.20
3699;DHT22;1865;50.918;7.092;2023-06-10T02:20:07;21.60;52.60
3699;DHT22;1865;50.918;7.092;2023-06-10T02:22:36;21.60;52.80
3699;DHT22;1865;50.918;7.092;2023-06-10T02:25:02;21.50;52.90
3699;DHT22;1865;50.918;7.092;2023-06-10T02:27:29;21.40;53.00
3699;DHT22;1865;50.918;7.092;2023-06-10T02:29:54;21.40;53.20
3699;DHT22;1865;50.918;7.092;2023-06-10T02:32:20;21.40;53.20
3699;DHT22;1865;50.918;7.092;2023-06-10T02:34:45;21.30;53.40
3699;DHT22;1865;50.918;7.092;2023-06-10T02:37:11;21.40;53.30
3699;DHT22;1865;50.918;7.092;2023-06-10T02:39:37;21.40;53.20
3699;DHT22;1865;50.918;7.092;2023-06-10T02:42:02;21.30;53.40
3699;DHT22;1865;50.918;7.092;2023-06-10T02:44:28;21.30;53.30
3699;DHT22;1865;50.918;7.092;2023-06-10T02:46:53;21.30;53.30
3699;DHT22;1865;50.918;7.092;2023-06-10T02:49:19;21.20;53.20
3699;DHT22;1865;50.918;7.092;2023-06-10T02:51:44;21.20;53.70
3699;DHT22;1865;50.918;7.092;2023-06-10T02:54:10;21.10;53.90
3699;DHT22;1865;50.918;7.092;2023-06-10T02:56:35;21.00;53.90
3699;DHT22;1865;50.918;7.092;2023-06-10T02:59:01;21.00;53.90
3699;DHT22;1865;50.918;7.092;2023-06-10T03:01:27;21.00;53.90
3699;DHT22;1865;50.918;7.092;2023-06-10T03:03:53;20.90;54.20
3699;DHT22;1865;50.918;7.092;2023-06-10T03:06:18;20.90;53.90
3699;DHT22;1865;50.918;7.092;2023-06-10T03:08:44;20.90;53.90
3699;DHT22;1865;50.918;7.092;2023-06-10T03:11:11;20.80;53.80
3699;DHT22;1865;50.918;7.092;2023-06-10T03:13:38;20.80;54.10
3699;DHT22;1865;50.918;7.092;2023-06-10T03:16:05;20.70;53.90
3699;DHT22;1865;50.918;7.092;2023-06-10T03:18:30;20.70;53.80
3699;DHT22;1865;50.918;7.092;2023-06-10T03:20:56;20.70;53.80
3699;DHT22;1865;50.918;7.092;2023-06-10T03:23:22;20.70;54.00
3699;DHT22;1865;50.918;7.092;2023-06-10T03:25:48;20.60;54.20
3699;DHT22;1865;50.918;7.092;2023-06-10T03:28:13;20.50;54.80
3699;DHT22;1865;50.918;7.092;2023-06-10T03:30:39;20.50;55.00
3699;DHT22;1865;50.918;7.092;2023-06-10T03:33:04;20.50;54.90
3699;DHT22;1865;50.918;7.092;2023-06-10T03:35:30;20.60;55.00
3699;DHT22;1865;50.918;7.092;2023-06-10T03:37:58;20.70;54.80
3699;DHT22;1865;50.918;7.092;2023-06-10T03:40:23;20.60;55.00
3699;DHT22;1865;50.918;7.092;2023-06-10T03:42:49;20.60;54.90
3699;DHT22;1865;50.918;7.092;2023-06-10T03:45:14;20.60;55.10
3699;DHT22;1865;50.918;7.092;2023-06-10T03:47:40;20.60;55.30
3699;DHT22;1865;50.918;7.092;2023-06-10T03:50:07;20.60;55.30
3699;DHT22;1865;50.918;7.092;2023-06-10T03:52:34;20.50;55.30
3699;DHT22;1865;50.918;7.092;2023-06-10T03:54:59;20.50;55.30
3699;DHT22;1865;50.918;7.092;2023-06-10T03:57:25;20.50;55.30
3699;DHT22;1865;50.918;7.092;2023-06-10T03:59:51;20.40;55.00
3699;DHT22;1865;50.918;7.092;2023-06-10T04:02:16;20.40;55.30
3699;DHT22;1865;50.918;7.092;2023-06-10T04:04:42;20.50;54.80
3699;DHT22;1865;50.918;7.092;2023-06-10T04:07:08;20.40;54.90
3699;DHT22;1865;50.918;7.092;2023-06-10T04:09:34;20.40;55.20
3699;DHT22;1865;50.918;7.092;2023-06-10T04:11:59;20.40;55.20
3699;DHT22;1865;50.918;7.092;2023-06-10T04:14:25;20.40;55.40
3699;DHT22;1865;50.918;7.092;2023-06-10T04:16:51;20.40;55.40
3699;DHT22;1865;50.918;7.092;2023-06-10T04:19:16;20.40;55.40
3699;DHT22;1865;50.918;7.092;2023-06-10T04:21:42;20.50;55.10
3699;DHT22;1865;50.918;7.092;2023-06-10T04:24:08;20.60;54.80
3699;DHT22;1865;50.918;7.092;2023-06-10T04:26:35;20.60;55.00
3699;DHT22;1865;50.918;7.092;2023-06-10T04:29:01;20.60;54.90
3699;DHT22;1865;50.918;7.092;2023-06-10T04:31:26;20.60;55.00
3699;DHT22;1865;50.918;7.092;2023-06-10T04:33:53;20.60;54.90
3699;DHT22;1865;50.918;7.092;2023-06-10T04:36:18;20.60;55.40
3699;DHT22;1865;50.918;7.092;2023-06-10T04:38:44;20.60;55.30
3699;DHT22;1865;50.918;7.092;2023-06-10T04:41:10;20.70;55.30
3699;DHT22;1865;50.918;7.092;2023-06-10T04:43:35;20.70;55.30
3699;DHT22;1865;50.918;7.092;2023-06-10T04:46:01;20.80;55.00
3699;DHT22;1865;50.918;7.092;2023-06-10T04:48:27;20.80;54.90
3699;DHT22;1865;50.918;7.092;2023-06-10T04:50:52;20.80;55.20
3699;DHT22;1865;50.918;7.092;2023-06-10T04:53:18;20.90;55.30
3699;DHT22;1865;50.918;7.092;2023-06-10T04:55:43;21.00;55.20
3699;DHT22;1865;50.918;7.092;2023-06-10T04:58:09;21.00;55.00
3699;DHT22;1865;50.918;7.092;2023-06-10T05:00:35;21.20;55.00
3699;DHT22;1865;50.918;7.092;2023-06-10T05:03:00;21.20;54.90
3699;DHT22;1865;50.918;7.092;2023-06-10T05:05:26;21.30;55.70
3699;DHT22;1865;50.918;7.092;2023-06-10T05:07:51;21.40;54.70
3699;DHT22;1865;50.918;7.092;2023-06-10T05:10:17;21.50;54.60
3699;DHT22;1865;50.918;7.092;2023-06-10T05:12:42;21.50;54.30
3699;DHT22;1865;50.918;7.092;2023-06-10T05:15:08;21.60;54.30
3699;DHT22;1865;50.918;7.092;2023-06-10T05:17:34;21.70;54.10
3699;DHT22;1865;50.918;7.092;2023-06-10T05:20:03;21.80;53.70
3699;DHT22;1865;50.918;7.092;2023-06-10T05:22:28;21.90;53.50
3699;DHT22;1865;50.918;7.092;2023-06-10T05:24:54;22.00;53.30
3699;DHT22;1865;50.918;7.092;2023-06-10T05:27:19;22.00;54.10
3699;DHT22;1865;50.918;7.092;2023-06-10T05:29:46;22.10;53.20
3699;DHT22;1865;50.918;7.092;2023-06-10T05:32:11;22.20;52.80
3699;DHT22;1865;50.918;7.092;2023-06-10T05:34:37;22.30;52.40
3699;DHT22;1865;50.918;7.092;2023-06-10T05:37:03;22.40;52.00
3699;DHT22;1865;50.918;7.092;2023-06-10T05:39:29;22.50;51.80
3699;DHT22;1865;50.918;7.092;2023-06-10T05:41:54;22.50;51.50
3699;DHT22;1865;50.918;7.092;2023-06-10T05:44:20;22.60;51.40
3699;DHT22;1865;50.918;7.092;2023-06-10T05:46:45;22.60;51.10
3699;DHT22;1865;50.918;7.092;2023-06-10T05:49:11;22.70;51.00
3699;DHT22;1865;50.918;7.092;2023-06-10T05:51:36;22.80;50.90
3699;DHT22;1865;50.918;7.092;2023-06-10T05:54:02;22.90;51.10
3699;DHT22;1865;50.918;7.092;2023-06-10T05:56:28;22.90;50.70
3699;DHT22;1865;50.918;7.092;2023-06-10T05:58:54;23.00;50.50
3699;DHT22;1865;50.918;7.092;2023-06-10T06:01:19;23.00;50.30
3699;DHT22;1865;50.918;7.092;2023-06-10T06:03:45;23.10;50.30
3699;DHT22;1865;50.918;7.092;2023-06-10T06:06:10;23.10;50.10
3699;DHT22;1865;50.918;7.092;2023-06-10T06:08:36;23.20;49.40
3699;DHT22;1865;50.918;7.092;2023-06-10T06:11:02;23.30;49.10
3699;DHT22;1865;50.918;7.092;2023-06-10T06:13:27;23.40;48.60
3699;DHT22;1865;50.918;7.092;2023-06-10T06:15:53;23.40;48.40
3699;DHT22;1865;50.918;7.092;2023-06-10T06:18:18;23.50;47.00
3699;DHT22;1865;50.918;7.092;2023-06-10T06:20:44;23.60;46.60
3699;DHT22;1865;50.918;7.092;2023-06-10T06:23:09;23.60;46.10
3699;DHT22;1865;50.918;7.092;2023-06-10T06:25:36;23.70;45.80
3699;DHT22;1865;50.918;7.092;2023-06-10T06:28:05;23.70;45.50
3699;DHT22;1865;50.918;7.092;2023-06-10T06:30:31;23.80;45.70
3699;DHT22;1865;50.918;7.092;2023-06-10T06:32:56;23.80;45.70
3699;DHT22;1865;50.918;7.092;2023-06-10T06:35:22;23.80;45.40
3699;DHT22;1865;50.918;7.092;2023-06-10T06:37:47;23.90;45.40
3699;DHT22;1865;50.918;7.092;2023-06-10T06:40:13;24.00;45.20
3699;DHT22;1865;50.918;7.092;2023-06-10T06:42:39;24.00;45.10
3699;DHT22;1865;50.918;7.092;2023-06-10T06:45:05;24.10;44.70
3699;DHT22;1865;50.918;7.092;2023-06-10T06:47:30;24.20;44.80
3699;DHT22;1865;50.918;7.092;2023-06-10T06:49:56;24.30;44.80
3699;DHT22;1865;50.918;7.092;2023-06-10T06:52:21;24.50;44.60
3699;DHT22;1865;50.918;7.092;2023-06-10T06:54:47;24.50;44.30
3699;DHT22;1865;50.918;7.092;2023-06-10T06:57:13;24.60;44.20
3699;DHT22;1865;50.918;7.092;2023-06-10T06:59:38;24.80;43.80
3699;DHT22;1865;50.918;7.092;2023-06-10T07:02:04;24.90;43.90
3699;DHT22;1865;50.918;7.092;2023-06-10T07:04:30;24.90;43.50
3699;DHT22;1865;50.918;7.092;2023-06-10T07:06:56;24.90;43.70
3699;DHT22;1865;50.918;7.092;2023-06-10T07:09:21;25.00;43.70
3699;DHT22;1865;50.918;7.092;2023-06-10T07:11:47;25.00;43.50
3699;DHT22;1865;50.918;7.092;2023-06-10T07:14:12;25.20;43.80
3699;DHT22;1865;50.918;7.092;2023-06-10T07:16:38;25.20;41.70
3699;DHT22;1865;50.918;7.092;2023-06-10T07:19:03;25.20;41.50
3699;DHT22;1865;50.918;7.092;2023-06-10T07:21:30;25.40;40.40
3699;DHT22;1865;50.918;7.092;2023-06-10T07:23:55;25.50;39.60
3699;DHT22;1865;50.918;7.092;2023-06-10T07:26:24;25.60;37.60
3699;DHT22;1865;50.918;7.092;2023-06-10T07:28:51;25.80;38.60
3699;DHT22;1865;50.918;7.092;2023-06-10T07:31:16;26.00;38.80
3699;DHT22;1865;50.918;7.092;2023-06-10T07:33:42;26.20;38.90
3699;DHT22;1865;50.918;7.092;2023-06-10T07:36:09;26.20;38.80
3699;DHT22;1865;50.918;7.092;2023-06-10T07:38:34;26.20;37.00
3699;DHT22;1865;50.918;7.092;2023-06-10T07:41:00;26.30;38.00
3699;DHT22;1865;50.918;7.092;2023-06-10T07:43:26;26.50;37.20
3699;DHT22;1865;50.918;7.092;2023-06-10T07:45:51;26.60;37.10
3699;DHT22;1865;50.918;7.092;2023-06-10T07:48:17;26.60;36.20
3699;DHT22;1865;50.918;7.092;2023-06-10T07:50:43;26.70;35.80
3699;DHT22;1865;50.918;7.092;2023-06-10T07:53:08;26.80;36.00
3699;DHT22;1865;50.918;7.092;2023-06-10T07:55:34;26.90;35.60
3699;DHT22;1865;50.918;7.092;2023-06-10T07:57:59;27.00;37.50
3699;DHT22;1865;50.918;7.092;2023-06-10T08:00:25;27.10;36.90
3699;DHT22;1865;50.918;7.092;2023-06-10T08:02:50;27.20;36.60
3699;DHT22;1865;50.918;7.092;2023-06-10T08:05:17;27.30;36.30
3699;DHT22;1865;50.918;7.092;2023-06-10T08:07:42;27.40;36.60
3699;DHT22;1865;50.918;7.092;2023-06-10T08:10:08;27.40;36.90
3699;DHT22;1865;50.918;7.092;2023-06-10T08:12:35;27.50;36.20
3699;DHT22;1865;50.918;7.092;2023-06-10T08:15:01;27.60;36.10
3699;DHT22;1865;50.918;7.092;2023-06-10T08:17:26;27.60;35.90
3699;DHT22;1865;50.918;7.092;2023-06-10T08:19:52;27.60;35.80
3699;DHT22;1865;50.918;7.092;2023-06-10T08:22:17;27.60;36.00
3699;DHT22;1865;50.918;7.092;2023-06-10T08:24:43;27.80;35.60
3699;DHT22;1865;50.918;7.092;2023-06-10T08:27:09;27.80;35.80
3699;DHT22;1865;50.918;7.092;2023-06-10T08:29:35;27.90;35.10
3699;DHT22;1865;50.918;7.092;2023-06-10T08:32:01;27.90;35.90
3699;DHT22;1865;50.918;7.092;2023-06-10T08:34:26;27.90;35.50
3699;DHT22;1865;50.918;7.092;2023-06-10T08:36:52;27.90;35.40
3699;DHT22;1865;50.918;7.092;2023-06-10T08:39:23;28.00;35.50
3699;DHT22;1865;50.918;7.092;2023-06-10T08:44:55;28.30;35.50
3699;DHT22;1865;50.918;7.092;2023-06-10T08:47:23;28.30;35.50
3699;DHT22;1865;50.918;7.092;2023-06-10T08:49:49;28.30;34.50
3699;DHT22;1865;50.918;7.092;2023-06-10T08:52:17;28.50;34.60
3699;DHT22;1865;50.918;7.092;2023-06-10T08:54:57;28.50;34.50
3699;DHT22;1865;50.918;7.092;2023-06-10T08:57:25;28.50;35.60
3699;DHT22;1865;50.918;7.092;2023-06-10T08:59:56;28.50;34.70
3699;DHT22;1865;50.918;7.092;2023-06-10T09:02:22;28.60;34.30
3699;DHT22;1865;50.918;7.092;2023-06-10T09:04:49;28.60;34.20
3699;DHT22;1865;50.918;7.092;2023-06-10T09:07:16;28.70;34.60
3699;DHT22;1865;50.918;7.092;2023-06-10T09:09:44;28.80;34.40
3699;DHT22;1865;50.918;7.092;2023-06-10T09:12:11;28.90;33.80
3699;DHT22;1865;50.918;7.092;2023-06-10T09:14:37;29.00;35.70
3699;DHT22;1865;50.918;7.092;2023-06-10T09:17:03;29.20;34.70
3699;DHT22;1865;50.918;7.092;2023-06-10T09:19:29;29.30;33.70
3699;DHT22;1865;50.918;7.092;2023-06-10T09:21:55;29.30;33.60
3699;DHT22;1865;50.918;7.092;2023-06-10T09:24:24;29.20;34.60
3699;DHT22;1865;50.918;7.092;2023-06-10T09:26:50;29.10;34.40
3699;DHT22;1865;50.918;7.092;2023-06-10T09:29:17;29.20;34.70
3699;DHT22;1865;50.918;7.092;2023-06-10T09:31:43;29.30;33.40
3699;DHT22;1865;50.918;7.092;2023-06-10T09:34:11;29.30;33.90
3699;DHT22;1865;50.918;7.092;2023-06-10T09:36:38;29.40;33.30
3699;DHT22;1865;50.918;7.092;2023-06-10T09:39:04;29.60;33.10
3699;DHT22;1865;50.918;7.092;2023-06-10T09:41:39;29.70;33.00
3699;DHT22;1865;50.918;7.092;2023-06-10T09:44:15;29.90;32.80
3699;DHT22;1865;50.918;7.092;2023-06-10T09:46:42;30.00;31.70
3699;DHT22;1865;50.918;7.092;2023-06-10T09:49:08;30.10;31.60
3699;DHT22;1865;50.918;7.092;2023-06-10T09:51:33;30.20;32.30
3699;DHT22;1865;50.918;7.092;2023-06-10T09:54:05;30.30;32.90
3699;DHT22;1865;50.918;7.092;2023-06-10T09:56:37;30.20;31.30
3699;DHT22;1865;50.918;7.092;2023-06-10T09:59:03;30.60;31.40
3699;DHT22;1865;50.918;7.092;2023-06-10T10:01:31;30.70;31.80
3699;DHT22;1865;50.918;7.092;2023-06-10T10:03:59;30.90;30.40
3699;DHT22;1865;50.918;7.092;2023-06-10T10:06:25;30.80;30.00
3699;DHT22;1865;50.918;7.092;2023-06-10T10:08:51;30.80;30.60
3699;DHT22;1865;50.918;7.092;2023-06-10T10:11:20;31.00;30.60
3699;DHT22;1865;50.918;7.092;2023-06-10T10:13:49;31.00;29.30
3699;DHT22;1865;50.918;7.092;2023-06-10T10:16:17;31.00;28.60
3699;DHT22;1865;50.918;7.092;2023-06-10T10:18:54;31.10;29.80
3699;DHT22;1865;50.918;7.092;2023-06-10T10:21:23;31.20;29.40
3699;DHT22;1865;50.918;7.092;2023-06-10T10:24:01;31.30;29.10
3699;DHT22;1865;50.918;7.092;2023-06-10T10:26:29;31.30;28.40
3699;DHT22;1865;50.918;7.092;2023-06-10T10:29:11;31.30;27.50
3699;DHT22;1865;50.918;7.092;2023-06-10T10:31:42;31.10;26.50
3699;DHT22;1865;50.918;7.092;2023-06-10T10:34:14;31.30;27.30
3699;DHT22;1865;50.918;7.092;2023-06-10T10:36:42;31.30;26.40
3699;DHT22;1865;50.918;7.092;2023-06-10T10:39:07;31.50;26.40
3699;DHT22;1865;50.918;7.092;2023-06-10T10:41:34;31.50;26.00
3699;DHT22;1865;50.918;7.092;2023-06-10T10:44:01;31.70;26.10
3699;DHT22;1865;50.918;7.092;2023-06-10T10:46:27;31.70;25.00
3699;DHT22;1865;50.918;7.092;2023-06-10T10:48:53;31.60;25.40
3699;DHT22;1865;50.918;7.092;2023-06-10T10:51:19;31.70;25.70
3699;DHT22;1865;50.918;7.092;2023-06-10T10:54:11;31.70;25.20
3699;DHT22;1865;50.918;7.092;2023-06-10T10:56:38;31.80;25.10
3699;DHT22;1865;50.918;7.092;2023-06-10T10:59:04;31.90;24.70
3699;DHT22;1865;50.918;7.092;2023-06-10T11:01:41;32.10;24.90
3699;DHT22;1865;50.918;7.092;2023-06-10T11:04:08;32.70;25.20
3699;DHT22;1865;50.918;7.092;2023-06-10T11:06:36;33.30;22.90
3699;DHT22;1865;50.918;7.092;2023-06-10T11:09:26;34.00;21.80
3699;DHT22;1865;50.918;7.092;2023-06-10T11:11:57;34.90;20.80
3699;DHT22;1865;50.918;7.092;2023-06-10T11:14:28;35.90;21.10
3699;DHT22;1865;50.918;7.092;2023-06-10T11:16:57;36.50;20.60
3699;DHT22;1865;50.918;7.092;2023-06-10T11:19:35;36.40;20.40
3699;DHT22;1865;50.918;7.092;2023-06-10T11:22:08;36.00;20.90
3699;DHT22;1865;50.918;7.092;2023-06-10T11:24:35;35.40;20.10
3699;DHT22;1865;50.918;7.092;2023-06-10T11:27:23;35.10;21.00
3699;DHT22;1865;50.918;7.092;2023-06-10T11:30:18;35.00;20.90
3699;DHT22;1865;50.918;7.092;2023-06-10T11:32:44;34.40;20.00
3699;DHT22;1865;50.918;7.092;2023-06-10T11:35:11;33.90;20.80
3699;DHT22;1865;50.918;7.092;2023-06-10T11:37:36;33.70;20.90
3699;DHT22;1865;50.918;7.092;2023-06-10T11:40:03;33.50;20.90
3699;DHT22;1865;50.918;7.092;2023-06-10T11:42:29;33.00;21.00
3699;DHT22;1865;50.918;7.092;2023-06-10T11:44:55;32.90;21.60
3699;DHT22;1865;50.918;7.092;2023-06-10T11:47:21;32.90;21.40
3699;DHT22;1865;50.918;7.092;2023-06-10T11:49:56;33.00;22.80
3699;DHT22;1865;50.918;7.092;2023-06-10T11:52:40;33.10;23.30
3699;DHT22;1865;50.918;7.092;2023-06-10T11:55:07;33.10;22.30
3699;DHT22;1865;50.918;7.092;2023-06-10T11:57:35;33.30;21.90
3699;DHT22;1865;50.918;7.092;2023-06-10T12:00:05;33.30;21.30
3699;DHT22;1865;50.918;7.092;2023-06-10T12:02:31;33.50;21.90
3699;DHT22;1865;50.918;7.092;2023-06-10T12:05:10;33.70;22.00
3699;DHT22;1865;50.918;7.092;2023-06-10T12:07:36;33.60;21.40
3699;DHT22;1865;50.918;7.092;2023-06-10T12:10:02;33.70;21.50
3699;DHT22;1865;50.918;7.092;2023-06-10T12:12:27;34.40;22.10
3699;DHT22;1865;50.918;7.092;2023-06-10T12:14:58;35.00;21.60
3699;DHT22;1865;50.918;7.092;2023-06-10T12:20:00;34.90;19.80
3699;DHT22;1865;50.918;7.092;2023-06-10T12:22:26;34.50;19.70
3699;DHT22;1865;50.918;7.092;2023-06-10T12:25:03;34.40;20.00
3699;DHT22;1865;50.918;7.092;2023-06-10T12:27:30;34.40;21.20
3699;DHT22;1865;50.918;7.092;2023-06-10T12:29:57;34.40;20.80
3699;DHT22;1865;50.918;7.092;2023-06-10T12:32:41;34.60;21.20
3699;DHT22;1865;50.918;7.092;2023-06-10T12:35:08;35.00;22.00
3699;DHT22;1865;50.918;7.092;2023-06-10T12:37:34;35.00;21.30
3699;DHT22;1865;50.918;7.092;2023-06-10T12:40:05;34.90;21.40
3699;DHT22;1865;50.918;7.092;2023-06-10T12:42:35;34.60;19.80
3699;DHT22;1865;50.918;7.092;2023-06-10T12:45:03;34.40;19.60
3699;DHT22;1865;50.918;7.092;2023-06-10T12:47:33;34.00;19.10
3699;DHT22;1865;50.918;7.092;2023-06-10T12:50:00;34.20;20.20
3699;DHT22;1865;50.918;7.092;2023-06-10T12:52:26;34.60;20.50
3699;DHT22;1865;50.918;7.092;2023-06-10T12:54:53;34.80;20.00
3699;DHT22;1865;50.918;7.092;2023-06-10T12:57:19;34.70;18.60
3699;DHT22;1865;50.918;7.092;2023-06-10T12:59:44;34.40;18.80
3699;DHT22;1865;50.918;7.092;2023-06-10T13:02:16;34.50;18.90
3699;DHT22;1865;50.918;7.092;2023-06-10T13:04:43;34.20;18.30
3699;DHT22;1865;50.918;7.092;2023-06-10T13:07:09;34.10;18.50
3699;DHT22;1865;50.918;7.092;2023-06-10T13:09:36;34.20;19.10
3699;DHT22;1865;50.918;7.092;2023-06-10T13:12:01;34.40;19.30
3699;DHT22;1865;50.918;7.092;2023-06-10T13:14:27;34.60;19.70
3699;DHT22;1865;50.918;7.092;2023-06-10T13:16:53;34.40;19.00
3699;DHT22;1865;50.918;7.092;2023-06-10T13:19:20;34.30;20.10
3699;DHT22;1865;50.918;7.092;2023-06-10T13:21:47;34.00;19.60
3699;DHT22;1865;50.918;7.092;2023-06-10T13:24:13;34.20;20.00
3699;DHT22;1865;50.918;7.092;2023-06-10T13:26:38;34.30;19.50
3699;DHT22;1865;50.918;7.092;2023-06-10T13:29:04;34.20;20.60
3699;DHT22;1865;50.918;7.092;2023-06-10T13:31:29;34.10;20.30
3699;DHT22;1865;50.918;7.092;2023-06-10T13:33:55;33.80;20.40
3699;DHT22;1865;50.918;7.092;2023-06-10T13:36:20;33.50;20.80
3699;DHT22;1865;50.918;7.092;2023-06-10T13:38:46;33.60;20.90
3699;DHT22;1865;50.918;7.092;2023-06-10T13:41:13;34.20;20.70
3699;DHT22;1865;50.918;7.092;2023-06-10T13:43:39;35.50;19.80
3699;DHT22;1865;50.918;7.092;2023-06-10T13:46:04;36.60;18.10
3699;DHT22;1865;50.918;7.092;2023-06-10T13:48:30;37.50;17.80
3699;DHT22;1865;50.918;7.092;2023-06-10T13:50:56;38.40;16.80
3699;DHT22;1865;50.918;7.092;2023-06-10T13:53:22;39.00;17.30
3699;DHT22;1865;50.918;7.092;2023-06-10T13:55:48;39.60;16.00
3699;DHT22;1865;50.918;7.092;2023-06-10T13:58:13;39.80;16.30
3699;DHT22;1865;50.918;7.092;2023-06-10T14:00:39;40.50;16.00
3699;DHT22;1865;50.918;7.092;2023-06-10T14:03:04;40.70;15.50
3699;DHT22;1865;50.918;7.092;2023-06-10T14:05:30;41.70;15.40
3699;DHT22;1865;50.918;7.092;2023-06-10T14:07:55;42.30;15.30
3699;DHT22;1865;50.918;7.092;2023-06-10T14:10:21;42.90;15.20
3699;DHT22;1865;50.918;7.092;2023-06-10T14:12:47;42.80;15.20
3699;DHT22;1865;50.918;7.092;2023-06-10T14:15:12;40.80;14.50
3699;DHT22;1865;50.918;7.092;2023-06-10T14:17:37;40.00;16.50
3699;DHT22;1865;50.918;7.092;2023-06-10T14:20:03;40.10;16.10
3699;DHT22;1865;50.918;7.092;2023-06-10T14:22:29;40.50;15.60
3699;DHT22;1865;50.918;7.092;2023-06-10T14:24:55;40.10;16.10
3699;DHT22;1865;50.918;7.092;2023-06-10T14:27:21;40.30;16.30
3699;DHT22;1865;50.918;7.092;2023-06-10T14:29:46;39.60;17.10
3699;DHT22;1865;50.918;7.092;2023-06-10T14:32:12;38.80;17.40
3699;DHT22;1865;50.918;7.092;2023-06-10T14:34:37;37.80;17.60
3699;DHT22;1865;50.918;7.092;2023-06-10T14:37:04;37.40;18.20
3699;DHT22;1865;50.918;7.092;2023-06-10T14:39:33;37.10;18.30
3699;DHT22;1865;50.918;7.092;2023-06-10T14:41:58;36.40;18.90
3699;DHT22;1865;50.918;7.092;2023-06-10T14:44:24;36.00;18.70
3699;DHT22;1865;50.918;7.092;2023-06-10T14:46:49;35.60;18.70
3699;DHT22;1865;50.918;7.092;2023-06-10T14:49:15;35.30;19.50
3699;DHT22;1865;50.918;7.092;2023-06-10T14:51:41;35.00;19.40
3699;DHT22;1865;50.918;7.092;2023-06-10T14:54:06;34.50;18.70
3699;DHT22;1865;50.918;7.092;2023-06-10T14:56:32;34.50;17.70
3699;DHT22;1865;50.918;7.092;2023-06-10T14:58:57;34.60;18.00
3699;DHT22;1865;50.918;7.092;2023-06-10T15:01:23;34.70;18.90
3699;DHT22;1865;50.918;7.092;2023-06-10T15:03:48;34.80;18.20
3699;DHT22;1865;50.918;7.092;2023-06-10T15:06:14;34.70;19.20
3699;DHT22;1865;50.918;7.092;2023-06-10T15:08:42;34.60;19.10
3699;DHT22;1865;50.918;7.092;2023-06-10T15:11:08;34.60;19.80
3699;DHT22;1865;50.918;7.092;2023-06-10T15:13:33;34.30;19.90
3699;DHT22;1865;50.918;7.092;2023-06-10T15:15:59;34.20;19.50
3699;DHT22;1865;50.918;7.092;2023-06-10T15:18:24;34.30;19.70
3699;DHT22;1865;50.918;7.092;2023-06-10T15:20:50;34.40;20.00
3699;DHT22;1865;50.918;7.092;2023-06-10T15:23:15;34.20;19.50
3699;DHT22;1865;50.918;7.092;2023-06-10T15:25:41;34.30;20.30
3699;DHT22;1865;50.918;7.092;2023-06-10T15:28:07;34.20;19.60
3699;DHT22;1865;50.918;7.092;2023-06-10T15:30:33;34.10;20.10
3699;DHT22;1865;50.918;7.092;2023-06-10T15:32:59;34.10;20.50
3699;DHT22;1865;50.918;7.092;2023-06-10T15:35:25;34.10;20.60
3699;DHT22;1865;50.918;7.092;2023-06-10T15:37:51;33.90;20.00
3699;DHT22;1865;50.918;7.092;2023-06-10T15:40:17;33.80;20.70
3699;DHT22;1865;50.918;7.092;2023-06-10T15:42:42;33.70;20.20
3699;DHT22;1865;50.918;7.092;2023-06-10T15:45:09;33.60;19.60
3699;DHT22;1865;50.918;7.092;2023-06-10T15:47:35;33.50;20.00
3699;DHT22;1865;50.918;7.092;2023-06-10T15:50:00;33.30;19.60
3699;DHT22;1865;50.918;7.092;2023-06-10T15:52:26;33.30;19.10
3699;DHT22;1865;50.918;7.092;2023-06-10T15:54:51;33.30;19.50
3699;DHT22;1865;50.918;7.092;2023-06-10T15:57:18;33.30;18.70
3699;DHT22;1865;50.918;7.092;2023-06-10T15:59:44;33.30;18.70
3699;DHT22;1865;50.918;7.092;2023-06-10T16:02:10;33.30;19.60
3699;DHT22;1865;50.918;7.092;2023-06-10T16:04:37;33.40;19.30
3699;DHT22;1865;50.918;7.092;2023-06-10T16:07:03;33.50;19.30
3699;DHT22;1865;50.918;7.092;2023-06-10T16:09:28;33.50;19.00
3699;DHT22;1865;50.918;7.092;2023-06-10T16:11:53;33.60;18.90